Time;durP1;ratioP1;P1;durP2;ratioP2;P2;SDS_P1;SDS_P2;PMS_P1;PMS_P2;Temp;Humidity;BMP_temperature;BMP_pressure;BME280_temperature;BME280_humidity;BME280_pressure;Samples;Min_cycle;Max_cycle;Signal;HPM_P1;HPM_P2
2021/04/15 03:21:45;;;;;;;7.18;3.35;;;;;;;4.83;55.06;100988.12;5318799;26;20068;-83
2021/04/15 03:24:41;;;;;;;7.68;3.62;;;;;;;4.58;55.83;100990.03;5320233;27;20512;-84
2021/04/15 04:43:06;;;;;;;10.50;6.80;;;;;;;5.66;54.22;101015.44;5320593;26;20107;-84
2021/04/15 04:46:00;;;;;;;12.55;6.90;;;;;;;5.64;54.32;101008.41;5303185;27;20431;-84
2021/04/15 04:48:44;;;;;;;12.43;6.07;;;;;;;5.79;53.87;101018.34;5319854;27;20081;-84
2021/04/15 04:51:18;;;;;;;10.48;7.40;;;;;;;6.08;53.13;101017.31;5319875;27;20690;-84
2021/04/15 04:53:48;;;;;;;16.02;9.65;;;;;;;5.90;53.81;101020.34;5300331;27;20067;-84
2021/04/15 04:56:21;;;;;;;14.05;10.25;;;;;;;6.37;52.56;101017.94;5299790;27;20415;-84
2021/04/15 04:58:50;;;;;;;18.95;10.50;;;;;;;6.13;52.75;101013.06;5299771;27;20113;-84
2021/04/15 05:24:24;;;;;;;12.35;9.23;;;;;;;6.39;52.19;101032.78;5286975;26;20061;-83
2021/04/15 05:26:52;;;;;;;16.37;11.30;;;;;;;6.16;52.70;101033.13;5300122;27;20102;-82
2021/04/15 05:29:22;;;;;;;14.18;8.88;;;;;;;6.83;51.47;101038.91;5319493;27;20060;-82
2021/04/15 05:31:50;;;;;;;;;;;;;;;6.74;51.82;101038.72;5319112;27;20060;-82
2021/04/15 05:34:28;;;;;;;10.23;6.22;;;;;;;6.76;51.45;101037.00;5309785;27;250408;-82
2021/04/15 05:36:59;;;;;;;12.07;6.87;;;;;;;6.00;53.27;101044.06;5318486;27;20080;-81
2021/04/15 05:39:36;;;;;;;14.87;7.07;;;;;;;6.52;52.21;101034.78;5299629;27;20720;-81
2021/04/15 05:42:24;;;;;;;15.98;9.23;;;;;;;6.76;51.93;101037.88;5318504;27;20070;-82
2021/04/15 05:44:50;;;;;;;13.32;8.88;;;;;;;6.80;52.09;101031.00;5317534;27;20052;-82
2021/04/15 05:47:31;;;;;;;10.80;6.87;;;;;;;6.69;52.25;101032.53;5319547;27;20061;-82
2021/04/15 05:50:00;;;;;;;12.05;5.82;;;;;;;7.18;50.81;101036.94;5316651;27;20597;-82
2021/04/15 05:52:32;;;;;;;11.77;6.72;;;;;;;7.10;50.64;101032.44;5316648;27;20128;-81
2021/04/15 05:55:04;;;;;;;10.35;5.70;;;;;;;8.17;48.11;101037.66;5314578;27;20091;-81
2021/04/15 10:24:32;;;;;;;4.85;3.30;;;;;;;10.86;38.03;100979.63;5291457;26;20085;-81
2021/04/15 10:27:33;;;;;;;7.00;3.87;;;;;;;11.24;37.16;100971.81;5320042;27;20053;-82
2021/04/15 10:30:23;;;;;;;5.57;2.97;;;;;;;11.27;37.17;100978.81;5320014;27;20065;-81
2021/04/15 10:32:59;;;;;;;5.80;3.53;;;;;;;11.59;37.51;100971.78;5318457;27;20057;-82
2021/04/15 13:21:05;;;;;;;8.10;4.82;;;;;;;14.68;25.91;100883.28;5304885;26;20072;-81
2021/04/15 13:23:40;;;;;;;5.68;3.65;;;;;;;15.27;26.34;100877.06;5321985;26;20056;-81
2021/04/15 13:26:06;;;;;;;5.95;3.42;;;;;;;15.05;25.94;100877.41;5341351;26;20045;-81
2021/04/15 13:28:39;;;;;;;6.15;3.55;;;;;;;14.04;26.84;100892.06;5341583;26;20075;-83
2021/04/15 13:31:05;;;;;;;6.37;3.40;;;;;;;13.42;27.85;100891.84;5321690;26;20076;-82
2021/04/15 13:34:03;;;;;;;7.03;3.60;;;;;;;13.23;28.92;100896.38;5324165;26;20060;-82
2021/04/15 13:36:30;;;;;;;5.75;3.00;;;;;;;13.63;29.74;100912.75;5342039;26;20048;-82
2021/04/15 13:39:03;;;;;;;4.95;3.03;;;;;;;13.60;31.48;100902.22;5341686;26;20532;-83
2021/04/15 13:41:53;;;;;;;11.38;6.10;;;;;;;13.05;31.38;100904.44;5323486;26;20539;-84
2021/04/15 13:44:56;;;;;;;5.78;3.37;;;;;;;12.80;31.06;100896.72;5341628;26;20422;-83
2021/04/15 13:47:51;;;;;;;8.05;4.85;;;;;;;13.41;29.84;100890.06;5321504;26;20094;-83
2021/04/15 13:51:06;;;;;;;6.32;3.97;;;;;;;14.07;29.08;100881.44;5341061;26;20075;-83
2021/04/15 13:53:51;;;;;;;7.62;4.45;;;;;;;14.31;29.15;100885.53;5340370;26;20071;-83
2021/04/15 13:56:42;;;;;;;5.78;4.62;;;;;;;13.42;29.70;100897.13;5321580;26;20056;-83
2021/04/15 14:33:58;;;;;;;8.00;3.85;;;;;;;14.18;30.01;100866.31;5292973;26;20348;-83
2021/04/15 14:36:34;;;;;;;8.48;4.57;;;;;;;14.12;29.60;100874.34;5314331;27;20084;-83
2021/04/15 14:39:17;;;;;;;6.28;3.37;;;;;;;13.94;29.25;100885.09;5317188;27;20084;-83
2021/04/15 14:42:02;;;;;;;7.07;3.95;;;;;;;13.57;28.85;100869.69;5315478;27;20071;-83
2021/04/15 14:44:29;;;;;;;3.95;2.28;;;;;;;13.78;29.08;100868.56;5315450;27;20487;-83
2021/04/15 14:46:57;;;;;;;5.25;3.10;;;;;;;13.92;27.56;100863.16;5315607;27;20416;-83
2021/04/15 14:49:34;;;;;;;4.22;2.78;;;;;;;13.90;28.22;100867.56;5316834;27;20060;-83
2021/04/15 14:52:14;;;;;;;3.67;2.35;;;;;;;13.66;26.98;100858.16;5318839;27;20083;-83
2021/04/15 14:54:41;;;;;;;3.10;2.47;;;;;;;13.01;28.80;100864.03;5319223;27;20053;-83
2021/04/15 14:57:19;;;;;;;5.05;3.17;;;;;;;12.72;29.25;100857.22;5317368;27;20129;-82
2021/04/15 14:59:46;;;;;;;4.45;3.00;;;;;;;12.33;29.13;100878.56;5317716;27;20065;-83
2021/04/15 15:02:20;;;;;;;3.40;2.25;;;;;;;12.72;30.14;100870.41;5317661;27;20060;-83
2021/04/15 15:04:59;;;;;;;5.53;3.53;;;;;;;13.28;27.32;100868.22;5319218;27;20422;-84
2021/04/15 15:07:37;;;;;;;6.68;3.80;;;;;;;12.94;28.51;100867.59;5320306;27;20072;-83
2021/04/15 15:10:11;;;;;;;11.05;6.65;;;;;;;13.13;28.34;100863.91;5318533;27;20433;-83
2021/04/15 15:12:43;;;;;;;5.95;3.95;;;;;;;12.62;28.38;100875.75;5320208;27;20053;-84
2021/04/15 15:15:13;;;;;;;9.40;5.53;;;;;;;12.63;29.43;100873.09;5319990;27;20117;-84
2021/04/15 15:17:39;;;;;;;9.40;4.45;;;;;;;11.69;29.70;100875.25;5320460;27;20118;-84
2021/04/15 15:20:18;;;;;;;5.37;2.83;;;;;;;11.86;29.96;100863.84;5320309;27;20133;-84
2021/04/15 15:23:24;;;;;;;6.55;4.40;;;;;;;10.70;31.38;100863.06;5318797;27;20168;-84
2021/04/15 15:26:19;;;;;;;10.80;6.03;;;;;;;10.73;32.07;100875.34;5320085;27;20071;-84
2021/04/15 15:29:01;;;;;;;13.05;7.43;;;;;;;10.54;32.73;100862.16;5289873;26;20068;-84
2021/04/15 15:31:32;;;;;;;9.68;6.45;;;;;;;10.51;33.39;100867.44;5318714;27;20109;-84
2021/04/15 15:34:15;;;;;;;8.40;6.00;;;;;;;11.02;33.04;100870.09;5319885;27;20069;-84
2021/04/15 15:36:42;;;;;;;9.57;5.03;;;;;;;10.67;33.31;100878.81;5318488;27;20437;-84
2021/04/15 15:39:37;;;;;;;7.50;3.80;;;;;;;10.50;34.20;100881.44;5320056;27;20057;-84
2021/04/15 15:42:04;;;;;;;8.05;5.95;;;;;;;10.48;33.29;100875.31;5320258;27;20056;-84
2021/04/15 15:44:34;;;;;;;9.32;4.75;;;;;;;10.78;33.58;100873.59;5318681;27;20053;-84
2021/04/15 15:47:07;;;;;;;8.55;4.70;;;;;;;10.92;33.04;100874.47;5320056;27;20049;-84
2021/04/15 15:49:36;;;;;;;6.25;3.70;;;;;;;10.57;32.09;100877.06;5320067;27;20414;-83
2021/04/15 15:52:12;;;;;;;7.87;4.60;;;;;;;10.21;32.92;100869.06;5320179;27;20075;-84
2021/04/15 15:54:46;;;;;;;7.10;4.30;;;;;;;10.26;32.90;100873.44;5319996;27;20112;-84
2021/04/15 15:57:16;;;;;;;5.45;3.97;;;;;;;10.59;32.53;100875.31;5320097;27;20044;-84
2021/04/15 15:59:54;;;;;;;5.35;4.03;;;;;;;10.46;33.62;100883.16;5320106;27;20560;-83
2021/04/15 16:02:23;;;;;;;4.65;3.25;;;;;;;10.21;33.15;100874.31;5320019;27;20061;-84
2021/04/15 16:04:52;;;;;;;7.70;3.97;;;;;;;10.03;33.65;100882.13;5320155;27;20044;-83
2021/04/15 16:07:23;;;;;;;6.00;3.65;;;;;;;9.96;33.66;100875.09;5320111;27;20055;-83
2021/04/15 16:09:58;;;;;;;7.57;4.30;;;;;;;9.97;33.40;100874.22;5320358;27;20064;-83
2021/04/15 16:12:28;;;;;;;9.50;4.82;;;;;;;9.75;33.94;100881.13;5320275;27;20060;-83
2021/04/15 16:14:55;;;;;;;8.52;4.18;;;;;;;9.67;34.10;100865.31;5318253;27;20056;-83
2021/04/15 16:17:23;;;;;;;4.97;3.83;;;;;;;9.55;34.17;100871.37;5319740;27;20419;-83
2021/04/15 16:19:50;;;;;;;5.97;3.85;;;;;;;10.02;34.11;100867.22;5320047;27;20433;-84
2021/04/15 16:22:22;;;;;;;5.00;3.80;;;;;;;10.30;33.83;100859.50;5320067;27;20092;-83
2021/04/15 16:24:48;;;;;;;6.95;4.93;;;;;;;9.73;34.60;100854.84;5318611;27;20057;-84
2021/04/15 16:27:15;;;;;;;8.13;4.87;;;;;;;9.58;35.87;100864.41;5319718;27;20053;-84
2021/04/15 16:29:44;;;;;;;11.73;5.70;;;;;;;9.86;35.07;100868.06;5320014;27;20113;-84
2021/04/15 16:32:11;;;;;;;8.52;6.03;;;;;;;10.46;35.14;100869.16;5320011;27;20056;-84
2021/04/15 16:34:40;;;;;;;8.30;5.00;;;;;;;10.31;34.86;100866.50;5319807;27;20111;-84
2021/04/15 16:37:14;;;;;;;8.10;5.15;;;;;;;10.27;34.47;100862.12;5318347;27;20480;-84
2021/04/15 16:39:41;;;;;;;8.98;5.95;;;;;;;10.06;34.54;100863.78;5319669;27;20063;-84
2021/04/15 16:42:11;;;;;;;5.15;3.33;;;;;;;9.77;35.78;100874.13;5319772;27;20336;-84
2021/04/15 16:44:38;;;;;;;7.85;5.43;;;;;;;9.71;34.99;100871.47;5318270;27;20087;-84
2021/04/15 16:47:05;;;;;;;9.35;5.28;;;;;;;9.92;35.09;100876.84;5319744;27;20118;-84
2021/04/15 16:49:33;;;;;;;11.77;7.28;;;;;;;9.75;35.47;100868.88;5319840;27;20060;-83
2021/04/15 16:52:00;;;;;;;8.88;5.85;;;;;;;10.18;35.18;100861.19;5319797;27;20071;-84
2021/04/15 16:54:27;;;;;;;7.75;5.50;;;;;;;9.66;35.67;100868.81;5318051;27;20057;-84
2021/04/15 16:56:54;;;;;;;9.93;5.60;;;;;;;9.66;36.35;100867.94;5320018;27;20446;-84
2021/04/15 16:59:23;;;;;;;10.15;7.05;;;;;;;9.70;36.09;100867.97;5319719;27;20071;-84
2021/04/15 17:01:49;;;;;;;9.93;6.30;;;;;;;9.95;35.87;100873.34;5320023;27;20087;-84
2021/04/15 17:04:16;;;;;;;11.02;6.70;;;;;;;9.60;35.77;100878.41;5319812;27;20069;-84
2021/04/15 17:06:43;;;;;;;7.43;4.43;;;;;;;9.28;36.40;100868.59;5317910;27;20049;-84
2021/04/15 17:09:10;;;;;;;8.05;5.90;;;;;;;9.47;35.69;100869.56;5319745;27;20639;-84
2021/04/15 17:11:38;;;;;;;10.57;7.20;;;;;;;9.03;36.82;100880.63;5319684;27;20087;-84
2021/04/15 17:14:04;;;;;;;14.43;9.52;;;;;;;9.07;37.81;100875.44;5318239;27;20053;-84
2021/04/15 17:16:31;;;;;;;15.73;9.82;;;;;;;8.96;37.94;100884.94;5319781;27;20461;-84
2021/04/15 17:18:58;;;;;;;15.82;10.27;;;;;;;9.03;37.60;100892.00;5319685;27;20069;-84
2021/04/15 17:21:25;;;;;;;14.02;8.98;;;;;;;9.33;37.55;100887.84;5318102;27;20336;-84
2021/04/15 17:23:56;;;;;;;8.50;6.03;;;;;;;9.58;37.50;100890.63;5319937;27;20514;-84
2021/04/15 17:26:28;;;;;;;8.32;6.20;;;;;;;8.45;40.09;100901.91;5319742;27;20046;-84
2021/04/15 17:28:56;;;;;;;7.87;5.72;;;;;;;8.68;40.24;100896.94;5319108;27;20057;-84
2021/04/15 17:31:24;;;;;;;8.93;5.57;;;;;;;9.32;39.35;100888.72;5318242;27;20068;-84
2021/04/15 17:33:51;;;;;;;15.27;7.90;;;;;;;8.95;40.32;100898.03;5319653;27;20048;-85
2021/04/15 17:36:18;;;;;;;10.80;6.75;;;;;;;9.09;39.86;100904.28;5319604;27;20090;-84
2021/04/15 17:38:45;;;;;;;17.17;9.98;;;;;;;9.11;40.04;100905.16;5319742;27;20108;-85
2021/04/15 17:41:12;;;;;;;10.90;8.00;;;;;;;8.61;41.38;100916.91;5319772;27;20120;-84
2021/04/15 17:43:38;;;;;;;14.50;8.30;;;;;;;9.25;40.15;100916.62;5317935;27;20075;-84
2021/04/15 17:46:10;;;;;;;10.93;7.68;;;;;;;9.55;39.64;100912.47;5319751;27;20068;-84
2021/04/15 17:48:38;;;;;;;12.88;9.13;;;;;;;8.82;41.06;100918.00;5319554;27;20072;-84
2021/04/15 17:51:20;;;;;;;13.40;8.85;;;;;;;8.95;41.05;100926.88;5319831;27;20541;-83
2021/04/15 17:53:49;;;;;;;12.52;8.13;;;;;;;8.46;41.99;100921.13;5319570;27;20057;-84
2021/04/15 17:56:22;;;;;;;11.50;8.57;;;;;;;8.49;42.12;100926.38;5317731;27;20402;-84
2021/04/15 17:58:49;;;;;;;15.38;11.27;;;;;;;8.33;42.75;100936.66;5319463;27;20060;-84
2021/04/15 18:01:16;;;;;;;16.23;11.15;;;;;;;8.72;42.14;100929.25;5317921;27;20061;-84
2021/04/15 18:03:44;;;;;;;10.57;7.47;;;;;;;8.64;42.54;100932.66;5319668;27;20134;-84
2021/04/15 18:06:12;;;;;;;12.52;9.05;;;;;;;8.93;41.91;100931.22;5319654;27;20057;-84
2021/04/15 18:08:39;;;;;;;6.75;5.60;;;;;;;8.61;42.88;100937.88;5319154;27;20118;-84
2021/04/15 18:11:06;;;;;;;7.50;5.45;;;;;;;7.51;45.53;100945.13;5319614;27;20060;-84
2021/04/15 18:13:33;;;;;;;8.88;6.68;;;;;;;7.73;45.65;100948.97;5319439;27;20052;-84
2021/04/15 18:16:00;;;;;;;10.02;6.75;;;;;;;7.72;46.41;100951.53;5317690;27;20087;-84
2021/04/15 18:18:29;;;;;;;7.10;5.72;;;;;;;7.28;47.82;100954.34;5319456;27;20339;-86
2021/04/15 18:20:58;;;;;;;9.38;6.30;;;;;;;7.87;46.53;100951.75;5318142;27;20094;-84
2021/04/15 18:23:25;;;;;;;7.30;5.68;;;;;;;7.43;48.03;100951.09;5319199;27;20053;-84
2021/04/15 18:25:53;;;;;;;21.17;15.88;;;;;;;7.92;46.48;100949.22;5319572;27;20053;-84
2021/04/15 18:28:24;;;;;;;10.07;6.15;;;;;;;7.87;46.73;100959.59;5317406;27;20584;-84
2021/04/15 18:30:54;;;;;;;11.05;7.37;;;;;;;7.59;47.39;100958.34;5319669;27;20087;-84
2021/04/15 18:33:23;;;;;;;;;;;;;;;7.60;47.68;100959.22;5319885;27;20048;-85
2021/04/15 18:35:51;;;;;;;9.13;6.18;;;;;;;8.19;46.46;100967.03;5317811;27;19976;-84
2021/04/15 18:38:19;;;;;;;10.05;7.00;;;;;;;7.38;48.43;100968.44;5317725;27;20530;-84
2021/04/15 18:40:51;;;;;;;9.35;6.05;;;;;;;7.73;47.65;100963.75;5319921;27;20056;-84
2021/04/15 18:43:17;;;;;;;5.40;3.97;;;;;;;7.89;47.39;100960.50;5320640;27;20067;-84
2021/04/15 18:45:44;;;;;;;6.90;5.30;;;;;;;7.32;48.93;100965.72;5320559;27;20083;-84
2021/04/15 18:48:13;;;;;;;7.25;5.18;;;;;;;7.78;48.11;100967.31;5320318;27;20053;-84
2021/04/15 18:50:41;;;;;;;6.90;5.15;;;;;;;8.27;47.00;100967.12;5320374;27;20060;-85
2021/04/15 18:53:09;;;;;;;6.72;5.62;;;;;;;8.14;47.45;100972.19;5318655;27;20143;-84
2021/04/15 18:55:36;;;;;;;7.07;5.68;;;;;;;8.13;47.55;100966.94;5320503;27;20048;-84
2021/04/15 18:58:03;;;;;;;8.02;5.22;;;;;;;8.49;46.12;100970.91;5320161;27;20072;-84
2021/04/15 19:00:33;;;;;;;6.70;4.20;;;;;;;8.50;46.68;100977.91;5320413;27;20469;-84
2021/04/15 19:02:59;;;;;;;6.68;4.97;;;;;;;8.49;46.60;100976.16;5320404;27;20052;-84
2021/04/15 19:05:27;;;;;;;7.35;5.50;;;;;;;8.51;46.78;100975.31;5320269;27;20057;-84
2021/04/15 19:07:54;;;;;;;8.30;6.00;;;;;;;8.39;47.14;100976.03;5320212;27;20400;-84
2021/04/15 19:10:24;;;;;;;8.88;5.78;;;;;;;8.31;47.36;100979.41;5318893;27;20132;-84
2021/04/15 19:12:50;;;;;;;9.13;6.15;;;;;;;8.22;47.48;100974.03;5320304;27;20459;-84
2021/04/15 19:15:17;;;;;;;6.10;5.50;;;;;;;8.12;47.56;100976.53;5320339;27;20140;-84
2021/04/15 19:17:44;;;;;;;11.10;5.30;;;;;;;8.28;46.77;100984.59;5318549;27;20419;-84
2021/04/15 19:53:12;;;;;;;8.25;6.03;;;;;;;8.10;48.06;100988.72;5220704;27;20081;-84
2021/04/15 19:56:02;;;;;;;10.10;6.40;;;;;;;7.93;48.34;100983.25;5276710;27;20064;-84
2021/04/15 19:58:33;;;;;;;10.40;5.80;;;;;;;7.99;48.21;100990.31;5276168;27;20105;-84
2021/04/15 20:01:01;;;;;;;16.70;10.25;;;;;;;7.92;48.79;100989.34;5256530;27;20077;-84
2021/04/15 20:03:27;;;;;;;14.20;7.65;;;;;;;7.47;49.59;100982.56;5256686;27;20081;-84
2021/04/15 20:05:54;;;;;;;22.75;11.85;;;;;;;6.98;50.98;100992.16;5276331;27;20434;-83
2021/04/15 20:08:37;;;;;;;16.30;9.02;;;;;;;7.33;49.92;100986.69;5256570;27;20057;-84
2021/04/15 20:11:07;;;;;;;9.52;6.55;;;;;;;7.15;50.50;100986.37;5276137;27;20077;-83
2021/04/15 20:13:35;;;;;;;34.53;22.23;;;;;;;7.46;49.30;100972.94;5276214;27;20102;-83
2021/04/15 20:16:02;;;;;;;24.42;12.37;;;;;;;7.09;50.58;100986.22;5276262;27;20475;-84
2021/04/15 20:18:29;;;;;;;190.62;77.53;;;;;;;6.89;50.27;100981.56;5276040;27;20057;-83
2021/04/15 20:20:57;;;;;;;60.42;27.58;;;;;;;7.21;50.16;100984.75;5276102;27;20062;-84
2021/04/15 20:23:24;;;;;;;21.60;11.10;;;;;;;7.05;50.46;100988.78;5276144;27;20375;-84
2021/04/15 20:25:51;;;;;;;39.65;20.98;;;;;;;7.19;50.29;100982.94;5256806;27;20415;-84
2021/04/15 20:28:18;;;;;;;20.42;12.82;;;;;;;7.20;50.28;100984.69;5276008;27;20049;-84
2021/04/15 20:30:44;;;;;;;8.27;6.12;;;;;;;7.07;50.71;100980.13;5276331;27;20328;-83
2021/04/15 20:33:13;;;;;;;7.90;5.35;;;;;;;7.21;50.12;100981.25;5276105;27;20092;-83
2021/04/15 20:35:42;;;;;;;6.32;4.72;;;;;;;7.17;50.05;100987.25;5276219;27;20119;-83
2021/04/15 20:38:10;;;;;;;7.18;4.93;;;;;;;6.90;51.34;100987.66;5256268;27;20069;-84
2021/04/15 20:40:36;;;;;;;8.48;5.28;;;;;;;6.93;51.00;100988.56;5276055;27;20053;-83
2021/04/15 20:43:03;;;;;;;6.82;4.60;;;;;;;6.81;51.79;100989.22;5276145;27;20053;-84
2021/04/15 20:45:29;;;;;;;8.68;6.35;;;;;;;6.55;52.43;100985.22;5276124;27;20430;-84
2021/04/15 20:47:56;;;;;;;15.63;7.68;;;;;;;7.22;50.60;100981.25;5256408;27;20128;-83
2021/04/15 20:50:26;;;;;;;18.60;7.78;;;;;;;6.66;51.82;100983.72;5275933;27;20594;-84
2021/04/15 20:52:53;;;;;;;14.60;6.40;;;;;;;6.77;51.85;100979.59;5275974;27;20069;-84
2021/04/15 20:55:19;;;;;;;10.20;6.45;;;;;;;7.01;51.06;100983.50;5276078;27;20071;-84
2021/04/15 20:57:46;;;;;;;7.97;6.03;;;;;;;6.75;51.58;100983.00;5275887;27;20084;-83
2021/04/15 21:00:18;;;;;;;7.43;5.87;;;;;;;6.60;52.42;100981.00;5276121;27;20443;-83
2021/04/15 21:02:44;;;;;;;6.72;4.65;;;;;;;6.71;52.14;100987.31;5276072;27;20118;-84
2021/04/15 21:05:11;;;;;;;6.22;5.20;;;;;;;6.85;51.59;100986.69;5276201;27;20072;-82
2021/04/15 21:07:39;;;;;;;5.12;3.90;;;;;;;6.58;52.37;100994.00;5275992;27;20430;-84
2021/04/15 21:10:08;;;;;;;5.20;4.37;;;;;;;6.92;51.66;100989.44;5275855;27;20143;-83
2021/04/15 21:12:35;;;;;;;4.60;3.33;;;;;;;6.51;52.75;100996.47;5275815;27;20072;-84
2021/04/15 21:15:01;;;;;;;5.72;3.80;;;;;;;6.76;52.07;100982.16;5276008;27;20121;-84
2021/04/15 21:17:27;;;;;;;4.37;3.67;;;;;;;6.47;52.34;100985.09;5275835;27;20145;-83
2021/04/15 21:19:54;;;;;;;5.12;4.15;;;;;;;6.70;52.55;100990.75;5275866;27;20063;-84
2021/04/15 21:22:20;;;;;;;6.68;4.45;;;;;;;6.79;52.48;100987.44;5275943;27;20061;-83
2021/04/15 21:24:46;;;;;;;5.03;3.70;;;;;;;6.58;52.46;100983.56;5275990;27;20120;-83
2021/04/15 21:27:13;;;;;;;3.90;3.20;;;;;;;6.44;53.37;100987.66;5274350;27;20117;-84
2021/04/15 21:29:39;;;;;;;5.25;4.03;;;;;;;6.46;53.69;100991.16;5275798;27;20074;-84
2021/04/15 21:32:06;;;;;;;3.97;3.30;;;;;;;6.70;53.22;100984.66;5256498;27;20057;-84
2021/04/15 21:34:37;;;;;;;6.28;4.10;;;;;;;6.24;54.59;100987.22;5256497;27;20119;-83
2021/04/15 21:37:06;;;;;;;4.57;3.87;;;;;;;6.66;53.10;100996.78;5274262;27;20156;-84
2021/04/15 21:39:33;;;;;;;4.37;3.55;;;;;;;6.54;53.87;100992.19;5275849;27;20061;-86
2021/04/15 21:42:00;;;;;;;4.53;3.80;;;;;;;6.55;53.80;100996.56;5256312;27;20076;-84
2021/04/15 21:44:26;;;;;;;5.65;3.75;;;;;;;6.82;53.35;100988.41;5275896;27;20061;-83
2021/04/15 21:46:53;;;;;;;5.45;3.50;;;;;;;6.31;54.90;100993.44;5275813;27;20450;-84
2021/04/15 21:49:19;;;;;;;4.18;3.72;;;;;;;6.72;53.63;100993.41;5275103;27;20063;-84
2021/04/15 21:51:48;;;;;;;4.75;4.20;;;;;;;7.07;52.41;100990.56;5274240;27;20427;-84
2021/04/15 21:54:16;;;;;;;6.97;4.95;;;;;;;7.02;52.50;100980.91;5256358;27;20075;-84
2021/04/15 21:56:42;;;;;;;7.18;5.60;;;;;;;6.83;52.93;100984.06;5275645;27;20050;-84
2021/04/15 21:59:10;;;;;;;8.77;6.18;;;;;;;6.76;52.93;100982.16;5275760;27;20068;-84
2021/04/15 22:01:37;;;;;;;8.18;6.47;;;;;;;6.55;53.83;100985.22;5275816;27;20053;-84
2021/04/15 22:04:04;;;;;;;4.75;3.87;;;;;;;6.76;52.96;100976.94;5275796;27;20071;-83
2021/04/15 22:06:35;;;;;;;4.70;3.65;;;;;;;6.22;53.91;100988.03;5275846;27;20074;-84
2021/04/15 22:09:06;;;;;;;4.75;3.85;;;;;;;6.37;53.67;100983.13;5256118;27;20120;-84
2021/04/15 22:11:35;;;;;;;4.43;3.62;;;;;;;6.76;52.87;100988.25;5275676;27;20137;-83
2021/04/15 22:14:05;;;;;;;4.03;3.42;;;;;;;6.52;52.98;100990.41;5275553;27;20132;-84
2021/04/15 22:16:33;;;;;;;4.65;3.75;;;;;;;6.56;52.96;100987.00;5276271;27;20068;-83
2021/04/15 22:19:07;;;;;;;4.20;3.12;;;;;;;6.02;54.57;100992.81;5276479;27;20079;-84
2021/04/15 22:21:41;;;;;;;3.33;3.03;;;;;;;6.56;52.82;100985.28;5257289;27;20062;-83
2021/04/15 22:24:14;;;;;;;3.47;2.80;;;;;;;6.27;54.13;100989.91;5257355;27;20140;-84
2021/04/15 22:26:42;;;;;;;4.30;2.92;;;;;;;6.43;53.09;100987.59;5276586;27;20821;-84
2021/04/15 22:29:14;;;;;;;4.07;3.28;;;;;;;6.79;51.71;100983.13;5276593;27;20113;-84
2021/04/15 22:31:47;;;;;;;4.80;3.17;;;;;;;6.88;52.09;100982.37;5276439;27;20407;-84
2021/04/15 22:34:16;;;;;;;5.93;3.28;;;;;;;6.82;52.16;100987.50;5276526;27;20069;-84
2021/04/15 22:36:43;;;;;;;4.47;4.07;;;;;;;7.16;50.79;100993.34;5276149;27;20128;-84
2021/04/15 22:39:10;;;;;;;5.55;4.35;;;;;;;7.23;50.04;100990.84;5276319;27;20625;-84
2021/04/15 22:41:37;;;;;;;6.20;4.00;;;;;;;7.25;50.81;100994.38;5276298;27;20061;-83
2021/04/15 22:44:04;;;;;;;5.20;3.75;;;;;;;7.48;49.32;100991.28;5276267;27;20122;-84
2021/04/15 22:46:31;;;;;;;4.50;4.10;;;;;;;7.25;51.05;101003.97;5276417;27;20070;-84
2021/04/15 22:48:57;;;;;;;5.05;3.70;;;;;;;7.27;50.85;100994.41;5276372;27;20103;-84
2021/04/15 22:51:24;;;;;;;4.50;3.83;;;;;;;7.16;50.44;101003.81;5276303;27;20057;-84
2021/04/15 22:53:51;;;;;;;4.95;3.30;;;;;;;7.15;50.71;101000.31;5276427;27;20084;-84
2021/04/15 22:56:18;;;;;;;4.68;4.18;;;;;;;7.29;50.38;101000.53;5276431;27;20430;-84
2021/04/15 22:58:45;;;;;;;3.83;3.30;;;;;;;7.38;50.14;101000.72;5276469;27;20204;-84
